Kihnu, Estonia

8:08 PM EEST on August 30, 2016 (GMT +0300)
Kuressaare | | Change Station

Elev 13 ft 58.23 °N, 22.51 °E | Updated 18 minutes ago

Clear
Clear
59 °F
Feels Like 59 °F
N
8
Wind Variable Wind from WNW

Today
High -- | Low -- °F
--% Chance of Precip.
Yesterday
High -- | Low -- °F
Precip. -- in
Pressure 29.98 in
Visibility 6.2 miles
Clouds
Dew Point 52 °F
Humidity 77%
Rainfall 0.00 in
Snow Depth Not available.
6:20 AM 8:27 PM
Waning Crescent, 3% visible
METAR EEKE 301650Z AUTO 29007KT 250V330 9999NDV NSC 15/11 Q1015
Pressure 29.98 in
Visibility 6.2 miles
Clouds
Dew Point 52 °F
Humidity 77%
Rainfall 0.00 in
Snow Depth Not available.
6:20 AM 8:27 PM
Waning Crescent, 3% visible
METAR EEKE 301650Z AUTO 29007KT 250V330 9999NDV NSC 15/11 Q1015

10-Day Weather Forecast

×

Almanac

Astronomy

Aug. 30, 2016 Rise Set
Actual Time
Civil Twilight
Nautical Twilight
Astronomical Twilight
Moon
Length of Visible Light
Length of Day
Tomorrow will be .
, % of the Moon is Illuminated

Today's Extremes

Country Highs Country Lows

Community

WunderPhotos

Upload Photos

1,935,845 photos uploaded!

WunderBlog® & News

Nearby

Air Quality

  Air Quality AQ Index Pollutant
Not available.

Snow Depth

Station Depth Elevation

Earthquake Activity

City Distance Mag. Time & Date
Minimum magnitude displayed is 2.5.

Coastal Water Temperatures

Place Temperature

Stations

Nearby Weather Stations

Station Location Temp. Windchill Dew Point Humidity Wind Precip. Elev Updated Type